createdAt,value
2022-09-14T00:01:33.119Z,14.75
2022-09-14T00:04:06.188Z,14.48
2022-09-14T00:06:35.890Z,15.65
2022-09-14T00:09:06.873Z,15.40
2022-09-14T00:11:36.200Z,15.32
2022-09-14T00:14:04.125Z,17.27
2022-09-14T00:16:37.405Z,16.73
2022-09-14T00:19:07.302Z,14.60
2022-09-14T00:21:37.223Z,20.38
2022-09-14T00:24:06.240Z,14.32
2022-09-14T00:26:33.410Z,13.13
2022-09-14T00:29:04.866Z,14.75
2022-09-14T00:31:34.931Z,15.27
2022-09-14T00:34:03.334Z,16.08
2022-09-14T00:36:31.823Z,12.50
2022-09-14T00:39:00.937Z,12.63
2022-09-14T00:41:32.047Z,11.65
2022-09-14T00:43:59.142Z,13.23
2022-09-14T00:46:29.142Z,12.07
2022-09-14T00:49:00.173Z,10.77
2022-09-14T00:51:29.996Z,12.63
2022-09-14T00:53:57.547Z,12.48
2022-09-14T00:56:25.116Z,10.98
2022-09-14T00:58:55.198Z,12.50
2022-09-14T01:01:22.556Z,12.52
2022-09-14T01:03:49.882Z,11.32
2022-09-14T01:06:16.887Z,10.93
2022-09-14T01:08:53.761Z,11.00
2022-09-14T01:11:25.460Z,11.38
2022-09-14T01:13:58.327Z,11.10
2022-09-14T01:16:44.609Z,11.80
2022-09-14T01:19:22.772Z,11.18
2022-09-14T01:21:51.608Z,11.68
2022-09-14T01:24:26.813Z,14.82
2022-09-14T01:27:18.436Z,11.00
2022-09-14T01:29:58.227Z,11.70
2022-09-14T01:32:51.245Z,11.15
2022-09-14T01:35:24.092Z,12.02
2022-09-14T01:37:57.712Z,12.73
2022-09-14T01:40:36.823Z,11.40
2022-09-14T01:43:14.210Z,13.13
2022-09-14T01:45:48.678Z,10.98
2022-09-14T01:48:20.010Z,10.32
2022-09-14T01:50:52.369Z,10.63
2022-09-14T01:53:38.651Z,11.05
2022-09-14T01:56:15.298Z,12.55
2022-09-14T01:59:02.851Z,10.65
2022-09-14T02:01:41.438Z,11.32
2022-09-14T02:04:13.358Z,11.90
2022-09-14T02:06:47.993Z,14.35
2022-09-14T02:09:22.380Z,11.88
2022-09-14T02:11:49.732Z,12.80
2022-09-14T02:14:16.932Z,12.27
2022-09-14T02:16:46.451Z,13.18
2022-09-14T02:19:14.123Z,12.75
2022-09-14T02:21:41.302Z,12.48
2022-09-14T02:24:09.503Z,12.45
2022-09-14T02:26:37.010Z,11.95
2022-09-14T02:29:04.511Z,15.15
2022-09-14T02:31:40.965Z,10.63
2022-09-14T02:34:07.990Z,13.68
2022-09-14T02:36:53.903Z,13.20
2022-09-14T02:39:33.415Z,11.32
2022-09-14T02:42:15.345Z,12.75
2022-09-14T02:44:54.752Z,11.65
2022-09-14T02:47:28.690Z,13.23
2022-09-14T02:50:04.013Z,11.73
2022-09-14T02:52:59.177Z,10.95
2022-09-14T02:55:31.041Z,11.95
2022-09-14T02:58:09.780Z,13.05
2022-09-14T03:00:43.144Z,11.07
2022-09-14T03:03:12.731Z,13.32
2022-09-14T03:05:40.122Z,11.88
2022-09-14T03:08:08.763Z,13.23
2022-09-14T03:10:35.926Z,16.20
2022-09-14T03:13:03.302Z,11.15
2022-09-14T03:15:30.844Z,12.90
2022-09-14T03:17:58.054Z,13.90
2022-09-14T03:20:28.427Z,12.38
2022-09-14T03:22:55.928Z,14.10
2022-09-14T03:25:25.710Z,12.05
2022-09-14T03:27:59.090Z,13.68
2022-09-14T03:30:27.992Z,13.35
2022-09-14T03:32:55.224Z,12.52
2022-09-14T03:35:22.295Z,15.60
2022-09-14T03:37:49.348Z,12.27
2022-09-14T03:40:21.668Z,14.15
2022-09-14T03:42:51.397Z,12.70
2022-09-14T03:45:19.924Z,14.93
2022-09-14T03:47:47.471Z,15.73
2022-09-14T03:50:16.565Z,12.23
2022-09-14T03:52:43.688Z,15.35
2022-09-14T03:55:11.704Z,13.80
2022-09-14T03:57:39.080Z,14.05
2022-09-14T04:00:07.416Z,14.25
2022-09-14T04:02:40.957Z,15.40
2022-09-14T04:05:08.501Z,13.57
2022-09-14T04:07:36.009Z,12.95
2022-09-14T04:10:04.334Z,13.93
2022-09-14T04:12:37.955Z,14.15
2022-09-14T04:15:06.874Z,15.20
2022-09-14T04:17:34.660Z,17.10
2022-09-14T04:20:01.808Z,15.02
2022-09-14T04:22:28.933Z,20.35
2022-09-14T04:24:55.975Z,15.73
2022-09-14T04:27:23.582Z,16.17
2022-09-14T04:29:51.093Z,16.08
2022-09-14T04:32:18.143Z,15.30
2022-09-14T04:34:45.238Z,16.83
2022-09-14T04:37:12.233Z,15.93
2022-09-14T04:39:39.276Z,14.43
2022-09-14T04:42:06.914Z,13.98
2022-09-14T04:44:34.099Z,17.10
2022-09-14T04:47:01.245Z,17.05
2022-09-14T04:49:28.339Z,15.75
2022-09-14T04:51:55.368Z,14.73
2022-09-14T04:54:22.400Z,16.90
2022-09-14T04:56:49.443Z,15.73
2022-09-14T04:59:16.564Z,19.10
2022-09-14T05:01:45.892Z,15.77
2022-09-14T05:04:13.189Z,21.05
2022-09-14T05:06:41.928Z,14.95
2022-09-14T05:09:16.244Z,15.95
2022-09-14T05:11:45.210Z,16.80
2022-09-14T05:14:13.817Z,17.25
2022-09-14T05:16:42.301Z,17.55
2022-09-14T05:19:13.078Z,15.18
2022-09-14T05:21:42.068Z,19.27
2022-09-14T05:24:18.398Z,16.60
2022-09-14T05:26:46.772Z,16.65
2022-09-14T05:29:18.233Z,15.15
2022-09-14T05:31:45.990Z,18.90
2022-09-14T05:34:13.552Z,20.70
2022-09-14T05:36:41.152Z,18.58
2022-09-14T05:39:09.144Z,16.45
2022-09-14T05:41:37.566Z,17.38
2022-09-14T05:44:05.607Z,14.52
2022-09-14T05:46:32.954Z,18.92
2022-09-14T05:49:00.266Z,16.35
2022-09-14T05:51:28.295Z,16.40
2022-09-14T05:53:58.400Z,15.73
2022-09-14T05:56:27.938Z,19.52
2022-09-14T05:58:55.734Z,20.48
2022-09-14T06:01:29.295Z,17.92
2022-09-14T06:03:58.176Z,20.05
2022-09-14T06:06:25.374Z,16.50
2022-09-14T06:08:54.285Z,16.13
2022-09-14T06:11:28.674Z,16.85
2022-09-14T06:13:56.512Z,22.95
2022-09-14T06:16:26.079Z,18.55
2022-09-14T06:18:55.843Z,19.15
2022-09-14T06:21:23.422Z,17.63
2022-09-14T06:23:52.081Z,18.63
2022-09-14T06:26:19.216Z,20.95
2022-09-14T06:28:46.348Z,21.02
2022-09-14T06:31:15.278Z,20.08
2022-09-14T06:33:46.043Z,19.98
2022-09-14T06:36:15.564Z,18.73
2022-09-14T06:38:43.212Z,21.20
2022-09-14T06:41:13.159Z,20.20
2022-09-14T06:43:42.048Z,25.77
2022-09-14T06:46:19.277Z,21.67
2022-09-14T06:48:49.180Z,21.98
2022-09-14T06:51:24.294Z,15.85
2022-09-14T06:53:52.477Z,21.58
2022-09-14T06:56:21.800Z,17.30
2022-09-14T06:58:50.720Z,18.05
2022-09-14T07:01:20.005Z,21.17
2022-09-14T07:03:48.196Z,17.00
2022-09-14T07:06:17.999Z,18.77
2022-09-14T07:08:49.405Z,18.10
2022-09-14T07:11:18.438Z,18.20
2022-09-14T07:13:46.440Z,19.58
2022-09-14T07:16:14.982Z,15.80
2022-09-14T07:18:42.524Z,19.48
2022-09-14T07:21:12.154Z,18.08
2022-09-14T07:23:41.955Z,15.40
2022-09-14T07:26:21.188Z,16.17
2022-09-14T07:28:54.170Z,16.23
2022-09-14T07:31:27.386Z,17.90
2022-09-14T07:33:57.036Z,14.43
2022-09-14T07:36:25.404Z,16.48
2022-09-14T07:38:53.664Z,16.17
2022-09-14T07:41:22.625Z,14.98
2022-09-14T07:43:51.563Z,16.27
2022-09-14T07:46:19.930Z,15.82
2022-09-14T07:48:47.794Z,12.70
2022-09-14T07:51:15.731Z,14.07
2022-09-14T07:53:43.611Z,16.35
2022-09-14T07:56:12.467Z,12.68
2022-09-14T07:58:39.733Z,13.40
2022-09-14T08:01:09.484Z,16.17
2022-09-14T08:03:36.715Z,14.32
2022-09-14T08:06:09.139Z,15.50
2022-09-14T08:08:38.742Z,11.75
2022-09-14T08:11:07.031Z,12.93
2022-09-14T08:13:37.010Z,15.93
2022-09-14T08:16:05.093Z,12.27
2022-09-14T08:18:33.502Z,29.02
2022-09-14T08:21:09.942Z,13.48
2022-09-14T08:23:37.768Z,15.70
2022-09-14T08:26:06.997Z,20.15
2022-09-14T08:28:36.457Z,12.55
2022-09-14T08:31:04.339Z,13.02
2022-09-14T08:33:36.012Z,10.88
2022-09-14T08:36:03.573Z,16.08
2022-09-14T08:38:30.859Z,11.18
2022-09-14T08:41:05.462Z,12.82
2022-09-14T08:43:33.006Z,13.85
2022-09-14T08:46:05.942Z,13.75
2022-09-14T08:48:47.570Z,14.30
2022-09-14T08:51:17.123Z,16.40
2022-09-14T08:53:45.387Z,16.60
2022-09-14T08:56:25.650Z,15.00
2022-09-14T08:59:12.898Z,15.60
2022-09-14T09:02:04.414Z,15.45
2022-09-14T09:04:34.426Z,20.75
2022-09-14T09:07:20.793Z,17.60
2022-09-14T09:09:51.057Z,11.93
2022-09-14T09:12:22.033Z,15.75
2022-09-14T09:14:54.650Z,16.00
2022-09-14T09:17:40.089Z,22.02
2022-09-14T09:20:23.677Z,13.45
2022-09-14T09:23:03.049Z,13.13
2022-09-14T09:25:59.145Z,17.15
2022-09-14T09:28:28.638Z,17.88
2022-09-14T09:30:59.268Z,14.32
2022-09-14T09:33:39.287Z,19.27
2022-09-14T09:36:16.358Z,14.95
2022-09-14T09:38:44.764Z,14.13
2022-09-14T09:41:24.593Z,13.70
2022-09-14T09:44:09.533Z,13.55
2022-09-14T09:46:38.779Z,17.58
2022-09-14T09:49:29.644Z,14.55
2022-09-14T09:51:57.311Z,17.10
2022-09-14T09:54:26.787Z,16.95
2022-09-14T09:57:05.889Z,14.00
2022-09-14T09:59:41.871Z,15.15
2022-09-14T10:02:21.072Z,17.70
2022-09-14T10:05:05.621Z,14.68
2022-09-14T10:07:35.656Z,16.80
2022-09-14T10:10:09.727Z,17.80
2022-09-14T10:15:25.915Z,10.13
2022-09-14T10:18:10.993Z,15.25
2022-09-14T10:20:40.755Z,12.38
2022-09-14T10:23:20.053Z,13.80
2022-09-14T10:25:49.436Z,13.35
2022-09-14T10:28:22.785Z,17.92
2022-09-14T10:31:00.921Z,11.32
2022-09-14T10:33:28.933Z,14.25
2022-09-14T10:36:23.701Z,16.70
2022-09-14T10:39:01.284Z,17.45
2022-09-14T10:42:18.620Z,13.75
2022-09-14T10:45:06.908Z,15.98
2022-09-14T10:47:51.521Z,14.10
2022-09-14T10:50:33.513Z,15.25
2022-09-14T10:53:23.377Z,15.02
2022-09-14T10:56:10.236Z,13.20
2022-09-14T10:58:43.219Z,15.82
2022-09-14T11:01:31.174Z,10.63
2022-09-14T11:04:19.525Z,17.05
2022-09-14T11:07:10.251Z,14.32
2022-09-14T11:09:57.393Z,14.00
2022-09-14T11:12:35.299Z,10.00
2022-09-14T11:15:21.449Z,12.27
2022-09-14T11:17:57.248Z,11.38
2022-09-14T11:20:55.916Z,14.13
2022-09-14T11:23:36.018Z,12.07
2022-09-14T11:26:23.701Z,12.57
2022-09-14T11:29:00.450Z,16.60
2022-09-14T11:32:20.327Z,11.93
2022-09-14T11:35:03.489Z,10.27
2022-09-14T11:37:46.980Z,18.65
2022-09-14T11:40:37.156Z,11.17
2022-09-14T11:43:19.179Z,13.73
2022-09-14T11:45:56.102Z,11.18
2022-09-14T11:48:42.714Z,14.80
2022-09-14T11:51:19.414Z,15.70
2022-09-14T11:53:47.472Z,12.30
2022-09-14T11:56:32.374Z,15.65
2022-09-14T11:59:06.348Z,13.45
2022-09-14T12:04:11.722Z,11.25
2022-09-14T12:06:38.838Z,12.25
2022-09-14T12:09:20.159Z,19.48
2022-09-14T12:11:51.323Z,15.30
2022-09-14T12:14:24.464Z,13.65
2022-09-14T12:17:35.631Z,14.47
2022-09-14T12:20:24.507Z,15.10
2022-09-14T12:22:51.665Z,13.60
2022-09-14T12:25:22.810Z,15.75
2022-09-14T12:27:50.721Z,16.45
2022-09-14T12:30:40.953Z,15.93
2022-09-14T12:33:33.485Z,13.98
2022-09-14T12:36:31.070Z,19.75
2022-09-14T12:38:58.120Z,16.48
2022-09-14T12:41:25.106Z,10.40
2022-09-14T12:43:52.193Z,12.13
2022-09-14T12:46:22.615Z,14.23
2022-09-14T12:48:58.694Z,20.90
2022-09-14T12:51:36.170Z,14.80
2022-09-14T12:54:09.164Z,15.27
2022-09-14T12:56:48.407Z,12.43
2022-09-14T12:59:41.386Z,12.60
2022-09-14T13:02:26.673Z,11.25
2022-09-14T13:04:56.747Z,11.82
2022-09-14T13:07:30.140Z,12.43
2022-09-14T13:09:58.493Z,14.82
2022-09-14T13:12:38.977Z,14.48
2022-09-14T13:15:10.291Z,11.10
2022-09-14T13:17:37.497Z,11.88
2022-09-14T13:20:15.797Z,13.48
2022-09-14T13:22:43.116Z,15.20
2022-09-14T13:25:34.141Z,13.43
2022-09-14T13:28:07.782Z,15.57
2022-09-14T13:30:36.107Z,13.32
2022-09-14T13:33:04.287Z,12.35
2022-09-14T13:35:47.952Z,13.43
2022-09-14T13:38:23.673Z,17.80
2022-09-14T13:40:54.298Z,13.95
2022-09-14T13:43:22.760Z,12.52
2022-09-14T13:45:51.649Z,11.45
2022-09-14T13:48:20.299Z,13.07
2022-09-14T13:50:52.340Z,15.50
2022-09-14T13:53:43.625Z,11.38
2022-09-14T13:56:22.702Z,11.40
2022-09-14T13:59:11.298Z,12.25
2022-09-14T14:01:41.114Z,12.15
2022-09-14T14:04:47.799Z,12.93
2022-09-14T14:07:26.429Z,11.05
2022-09-14T14:09:56.585Z,14.70
2022-09-14T14:12:27.885Z,12.27
2022-09-14T14:14:59.359Z,15.43
2022-09-14T14:17:37.012Z,19.08
2022-09-14T14:20:29.953Z,13.20
2022-09-14T14:23:02.501Z,16.65
2022-09-14T14:25:47.733Z,12.32
2022-09-14T14:28:18.000Z,16.13
2022-09-14T14:30:45.620Z,15.77
2022-09-14T14:33:14.181Z,12.07
2022-09-14T14:35:41.997Z,14.13
2022-09-14T14:38:09.726Z,17.15
2022-09-14T14:40:37.988Z,13.13
2022-09-14T14:43:05.995Z,18.13
2022-09-14T14:45:36.343Z,14.45
2022-09-14T14:48:04.123Z,14.75
2022-09-14T14:50:34.156Z,10.95
2022-09-14T14:53:02.262Z,11.60
2022-09-14T14:55:31.917Z,13.35
2022-09-14T14:58:04.998Z,10.57
2022-09-14T15:00:34.925Z,11.73
2022-09-14T15:03:02.480Z,10.75
2022-09-14T15:05:29.665Z,13.10
2022-09-14T15:07:56.917Z,11.90
2022-09-14T15:10:26.047Z,13.35
2022-09-14T15:12:53.311Z,11.38
2022-09-14T15:15:24.052Z,11.60
2022-09-14T15:17:51.794Z,10.38
2022-09-14T15:20:20.097Z,12.95
2022-09-14T15:22:48.318Z,10.27
2022-09-14T15:25:16.574Z,11.60
2022-09-14T15:27:43.683Z,10.80
2022-09-14T15:30:12.147Z,11.48
2022-09-14T15:32:39.657Z,12.68
2022-09-14T15:35:10.037Z,12.35
2022-09-14T15:37:37.185Z,11.23
2022-09-14T15:40:05.434Z,11.65
2022-09-14T15:42:32.599Z,10.50
2022-09-14T15:44:59.664Z,13.30
2022-09-14T15:47:26.754Z,12.13
2022-09-14T15:49:54.128Z,9.73
2022-09-14T15:52:21.186Z,10.00
2022-09-14T15:54:49.353Z,12.35
2022-09-14T15:57:16.556Z,10.85
2022-09-14T15:59:43.948Z,10.60
2022-09-14T16:02:12.483Z,11.95
2022-09-14T16:04:40.015Z,13.05
2022-09-14T16:07:11.471Z,16.92
2022-09-14T16:09:39.979Z,10.82
2022-09-14T16:12:09.055Z,11.07
2022-09-14T16:14:36.296Z,11.63
2022-09-14T16:17:03.674Z,12.85
2022-09-14T16:19:30.736Z,11.77
2022-09-14T16:21:58.044Z,13.63
2022-09-14T16:24:25.968Z,12.15
2022-09-14T16:26:53.673Z,11.15
2022-09-14T16:29:22.175Z,15.50
2022-09-14T16:31:49.838Z,11.63
2022-09-14T16:34:28.774Z,10.55
2022-09-14T16:36:58.759Z,13.13
2022-09-14T16:39:29.521Z,12.43
2022-09-14T16:41:57.405Z,10.73
2022-09-14T16:44:26.274Z,10.75
2022-09-14T16:46:55.038Z,10.98
2022-09-14T16:49:26.534Z,11.77
2022-09-14T16:51:54.983Z,12.60
2022-09-14T16:54:23.432Z,11.40
2022-09-14T16:56:50.925Z,9.68
2022-09-14T16:59:19.464Z,11.05
2022-09-14T17:01:51.924Z,15.57
2022-09-14T17:04:22.196Z,10.40
2022-09-14T17:06:50.673Z,12.32
2022-09-14T17:09:26.509Z,12.93
2022-09-14T17:11:54.393Z,13.57
2022-09-14T17:14:28.467Z,13.45
2022-09-14T17:16:56.006Z,15.20
2022-09-14T17:19:23.266Z,15.45
2022-09-14T17:21:50.719Z,16.83
2022-09-14T17:24:19.242Z,14.07
2022-09-14T17:26:46.949Z,13.98
2022-09-14T17:29:14.602Z,11.90
2022-09-14T17:31:43.488Z,12.15
2022-09-14T17:34:12.910Z,16.00
2022-09-14T17:36:40.961Z,18.23
2022-09-14T17:39:12.056Z,17.95
2022-09-14T17:41:40.760Z,13.60
2022-09-14T17:44:10.507Z,18.63
2022-09-14T17:46:45.934Z,14.20
2022-09-14T17:49:18.582Z,14.88
2022-09-14T17:51:45.622Z,12.30
2022-09-14T17:54:13.268Z,13.65
2022-09-14T17:56:40.733Z,11.27
2022-09-14T17:59:13.009Z,14.23
2022-09-14T18:01:40.592Z,14.65
2022-09-14T18:04:10.792Z,13.57
2022-09-14T18:06:48.523Z,11.95
2022-09-14T18:09:18.590Z,13.65
2022-09-14T18:11:45.813Z,12.27
2022-09-14T18:14:14.509Z,12.93
2022-09-14T18:16:43.255Z,13.75
2022-09-14T18:19:10.582Z,13.23
2022-09-14T18:21:37.798Z,13.95
2022-09-14T18:24:05.566Z,12.20
2022-09-14T18:26:32.743Z,14.35
2022-09-14T18:28:59.868Z,12.02
2022-09-14T18:31:27.624Z,12.20
2022-09-14T18:33:59.384Z,14.02
2022-09-14T18:36:29.303Z,12.30
2022-09-14T18:38:57.919Z,15.73
2022-09-14T18:41:25.088Z,16.98
2022-09-14T18:43:53.389Z,16.25
2022-09-14T18:46:25.754Z,13.52
2022-09-14T18:48:56.883Z,11.60
2022-09-14T18:51:24.222Z,12.63
2022-09-14T18:54:01.268Z,12.35
2022-09-14T18:56:29.242Z,14.63
2022-09-14T18:58:56.749Z,17.52
2022-09-14T19:01:23.983Z,18.27
2022-09-14T19:03:51.260Z,15.50
2022-09-14T19:06:19.142Z,13.15
2022-09-14T19:08:46.844Z,16.02
2022-09-14T19:11:16.885Z,14.05
2022-09-14T19:13:45.109Z,15.85
2022-09-14T19:16:18.059Z,14.07
2022-09-14T19:18:47.254Z,22.67
2022-09-14T19:21:18.249Z,13.63
2022-09-14T19:23:48.830Z,14.13
2022-09-14T19:26:22.841Z,17.70
2022-09-14T19:31:21.321Z,14.75
2022-09-14T19:33:48.923Z,16.70
2022-09-14T19:36:19.947Z,16.92
2022-09-14T19:38:48.094Z,14.27
2022-09-14T19:41:16.231Z,17.40
2022-09-14T19:43:43.492Z,14.93
2022-09-14T19:46:19.214Z,13.38
2022-09-14T19:48:50.503Z,15.13
2022-09-14T19:51:21.526Z,15.15
2022-09-14T19:53:50.223Z,20.33
2022-09-14T19:56:19.804Z,17.63
2022-09-14T19:58:50.938Z,13.98
2022-09-14T20:01:20.318Z,18.65
2022-09-14T20:03:48.473Z,15.18
2022-09-14T20:06:19.625Z,14.60
2022-09-14T20:08:48.160Z,14.95
2022-09-14T20:11:19.925Z,17.20
2022-09-14T20:13:50.473Z,16.02
2022-09-14T20:16:19.164Z,24.17
2022-09-14T20:18:48.130Z,21.08
2022-09-14T20:21:19.077Z,20.08
2022-09-14T20:24:11.534Z,25.73
2022-09-14T20:26:36.466Z,19.48
2022-09-14T20:29:04.087Z,21.10
2022-09-14T20:31:31.769Z,19.25
2022-09-14T20:34:24.439Z,21.33
2022-09-14T20:36:52.763Z,22.50
2022-09-14T20:39:22.212Z,20.08
2022-09-14T20:41:54.527Z,24.77
2022-09-14T20:44:23.299Z,22.92
2022-09-14T20:46:51.219Z,24.83
2022-09-14T20:49:21.143Z,28.17
2022-09-14T20:51:48.344Z,25.25
2022-09-14T20:54:17.837Z,18.75
2022-09-14T20:56:46.370Z,16.27
2022-09-14T20:59:18.740Z,23.33
2022-09-14T21:01:49.811Z,17.30
2022-09-14T21:04:19.698Z,19.90
2022-09-14T21:06:49.847Z,21.55
2022-09-14T21:09:18.296Z,21.55
2022-09-14T21:11:46.405Z,18.92
2022-09-14T21:14:15.711Z,22.05
2022-09-14T21:16:46.138Z,19.48
2022-09-14T21:19:14.910Z,23.92
2022-09-14T21:21:43.394Z,25.10
2022-09-14T21:24:13.431Z,22.35
2022-09-14T21:26:42.976Z,15.65
2022-09-14T21:29:14.332Z,21.98
2022-09-14T21:31:42.439Z,17.95
2022-09-14T21:34:11.315Z,26.77
2022-09-14T21:36:44.112Z,22.75
2022-09-14T21:39:14.454Z,25.05
2022-09-14T21:41:43.035Z,26.40
2022-09-14T21:44:10.265Z,25.05
2022-09-14T21:46:37.471Z,20.58
2022-09-14T21:49:04.950Z,20.98
2022-09-14T21:51:34.733Z,26.67
2022-09-14T21:54:08.812Z,19.88
2022-09-14T21:59:09.845Z,24.30
2022-09-14T22:01:37.393Z,26.27
2022-09-14T22:04:06.656Z,28.33
2022-09-14T22:06:35.064Z,28.63
2022-09-14T22:09:02.268Z,24.75
2022-09-14T22:11:32.883Z,19.55
2022-09-14T22:14:07.324Z,21.48
2022-09-14T22:16:37.093Z,28.15
2022-09-14T22:19:13.183Z,20.13
2022-09-14T22:21:40.330Z,16.13
2022-09-14T22:24:11.469Z,17.85
2022-09-14T22:26:40.431Z,19.55
2022-09-14T22:29:09.174Z,17.85
2022-09-14T22:31:38.566Z,18.17
2022-09-14T22:34:06.351Z,19.73
2022-09-14T22:36:34.189Z,17.73
2022-09-14T22:39:01.798Z,26.52
2022-09-14T22:41:29.471Z,19.20
2022-09-14T22:43:56.972Z,22.05
2022-09-14T22:46:25.063Z,28.65
2022-09-14T22:48:53.351Z,27.60
2022-09-14T22:51:25.761Z,25.92
2022-09-14T22:53:53.217Z,24.00
2022-09-14T22:56:23.865Z,28.90
2022-09-14T22:58:51.632Z,30.65
2022-09-14T23:01:25.691Z,27.05
2022-09-14T23:03:59.899Z,25.65
2022-09-14T23:06:29.019Z,33.85
2022-09-14T23:08:56.859Z,26.55
2022-09-14T23:11:24.077Z,17.80
2022-09-14T23:13:51.185Z,15.95
2022-09-14T23:16:20.713Z,24.63
2022-09-14T23:18:52.798Z,20.02
2022-09-14T23:21:20.536Z,22.45
2022-09-14T23:23:55.228Z,17.55
2022-09-14T23:26:23.316Z,17.60
2022-09-14T23:28:59.715Z,16.95
2022-09-14T23:31:28.622Z,16.83
2022-09-14T23:33:58.466Z,20.33
2022-09-14T23:36:26.249Z,17.08
2022-09-14T23:38:54.095Z,17.70
2022-09-14T23:41:22.779Z,20.58
2022-09-14T23:43:50.283Z,18.98
2022-09-14T23:46:19.790Z,23.33
2022-09-14T23:48:47.204Z,17.10
2022-09-14T23:51:14.681Z,23.55
2022-09-14T23:53:43.307Z,26.55
2022-09-14T23:56:11.028Z,23.17
2022-09-14T23:58:38.615Z,21.00
